MUCF

Details ICAO MUCF (CFG)
Name JAIME GONZALEZ
Region Cuba
Timezone America/Havana (UTC-4.0)
Plans Departing 10
Arriving 13
Stats Elevation 102 ft / 31 m (AMSL)
Location 22.149850° -80.414310°
Runways 1
Magnetic Variation 6.060° W
Sunrise 2018-05-26 10:40:00 UTC / 2018-05-26 06:40:00 Local
Sunset 2018-05-27 00:00:19 UTC / 2018-05-26 20:00:19 Local
Advertisement - Login to hide

Runways

ID Width Length Bearing (true) Bearing (mag) Surface Threshold Offset Overrun Length
02 148 ft / 45 m 7,908 ft / 2,410 m 15.87° 21.93° Asphalt 0 ft / 0 m 120 ft / 37 m
20 148 ft / 45 m 7,908 ft / 2,410 m 195.87° 201.93° Asphalt 0 ft / 0 m 0 ft / 0 m

Map

Weather


0- 5 10 15 20 25 30 35+ Temperature / ° C

Clouds and Precipitation
Forecast for 2018-05-27 00:00 UTC. Updated 27 minutes ago

Ground ~20,000 ft ~40,000 ft Winds

METAR

MUCF 262259Z AUTO 16011G21KT 110V200 27/25 Q1008

TAF

Not found

Frequencies

Tower 118.90 MHz CIENFUEGOS TWR
Warning: Do not use this data for real-world aviation or navigation. No guarantee of current accuracy is given.